Time;durP1;ratioP1;P1;durP2;ratioP2;P2;SDS_P1;SDS_P2;PMS_P1;PMS_P2;Temp;Humidity;BMP_temperature;BMP_pressure;BME280_temperature;BME280_humidity;BME280_pressure;Samples;Min_cycle;Max_cycle;Signal;HPM_P1;HPM_P2
2023/02/08 00:00:40;;;;;;;50.63;23.05;;;-2.60;99.90;;;-4.53;97.96;103817.31;4973296;28;20619;-80
2023/02/08 00:03:06;;;;;;;42.95;21.48;;;-2.60;99.90;;;-4.56;97.85;103812.88;4930647;28;20123;-79
2023/02/08 00:05:32;;;;;;;47.40;21.85;;;-2.60;99.90;;;-4.56;98.49;103810.28;4931810;28;20030;-78
2023/02/08 00:07:58;;;;;;;43.08;20.63;;;-2.60;99.90;;;-4.60;97.93;103804.81;4953063;28;20411;-78
2023/02/08 00:10:23;;;;;;;44.85;20.63;;;-2.60;99.90;;;-4.61;98.10;103811.66;4942350;28;20031;-79
2023/02/08 00:12:51;;;;;;;49.88;21.73;;;-2.60;99.90;;;-4.62;98.72;103812.47;4958261;28;20507;-78
2023/02/08 00:15:18;;;;;;;47.33;22.02;;;-2.60;99.90;;;-4.62;98.86;103808.97;4925109;28;20566;-78
2023/02/08 00:17:44;;;;;;;43.50;20.45;;;-2.60;99.90;;;-4.66;98.77;103805.34;4917297;28;20438;-79
2023/02/08 00:20:18;;;;;;;47.05;21.83;;;-2.60;99.90;;;-4.68;99.22;103806.91;4951285;28;20049;-77
2023/02/08 00:22:44;;;;;;;46.08;20.83;;;-2.70;99.90;;;-4.60;98.63;103809.97;4923395;28;20047;-79
2023/02/08 00:25:10;;;;;;;42.80;20.88;;;-2.70;99.90;;;-4.58;98.56;103813.53;4955827;28;20057;-78
2023/02/08 00:27:36;;;;;;;48.05;21.02;;;-2.70;99.90;;;-4.57;99.00;103812.75;4954172;28;20031;-78
2023/02/08 00:30:05;;;;;;;44.10;20.05;;;-2.60;99.90;;;-4.54;98.90;103823.22;4917265;28;20422;-79
2023/02/08 00:32:33;;;;;;;42.75;20.83;;;-2.70;99.90;;;-4.60;98.28;103816.03;4941245;28;20068;-78
2023/02/08 00:34:59;;;;;;;42.97;20.42;;;-2.70;99.90;;;-4.59;97.56;103817.78;4900226;28;20034;-78
2023/02/08 00:37:25;;;;;;;43.70;20.35;;;-2.70;99.90;;;-4.61;97.73;103818.50;4944574;28;20600;-78
2023/02/08 00:39:50;;;;;;;44.83;21.52;;;-2.70;99.90;;;-4.68;97.07;103814.63;4933894;28;20098;-79
2023/02/08 00:42:16;;;;;;;43.55;19.80;;;-2.80;99.90;;;-4.68;96.79;103816.31;4950241;28;20055;-78
2023/02/08 00:44:42;;;;;;;41.88;20.00;;;-2.80;99.90;;;-4.67;97.07;103818.97;4955512;28;20038;-79
2023/02/08 00:47:08;;;;;;;45.28;20.17;;;-2.80;99.90;;;-4.69;96.68;103823.13;4961467;28;20042;-79
2023/02/08 00:49:36;;;;;;;43.15;19.85;;;-2.80;99.90;;;-4.71;96.97;103811.84;4963328;28;20038;-80
2023/02/08 00:52:02;;;;;;;42.67;20.52;;;-2.80;99.90;;;-4.69;96.25;103811.94;4949109;28;20089;-79
2023/02/08 00:54:28;;;;;;;43.60;19.73;;;-2.80;99.90;;;-4.71;96.35;103809.25;4947130;28;20059;-79
2023/02/08 00:56:54;;;;;;;41.22;19.98;;;-2.80;99.90;;;-4.75;96.39;103800.47;4947009;28;20066;-79
2023/02/08 00:59:20;;;;;;;45.45;19.85;;;-2.80;99.90;;;-4.76;96.07;103802.94;4923566;28;20046;-79
2023/02/08 01:01:45;;;;;;;41.90;20.27;;;-2.90;99.90;;;-4.78;96.00;103802.84;4946532;28;20178;-79
2023/02/08 01:04:11;;;;;;;45.83;20.10;;;-2.90;99.90;;;-4.80;96.18;103806.97;4956939;28;20115;-79
2023/02/08 01:06:40;;;;;;;46.00;20.80;;;-2.90;99.90;;;-4.83;96.05;103799.09;4933820;28;20117;-79
2023/02/08 01:09:06;;;;;;;41.53;19.40;;;-3.00;99.90;;;-4.87;96.25;103798.78;4946775;28;20102;-79
2023/02/08 01:11:32;;;;;;;45.25;20.35;;;-2.90;99.90;;;-4.86;96.18;103800.53;4949092;28;20480;-79
2023/02/08 01:13:59;;;;;;;44.35;19.63;;;-2.90;99.90;;;-4.88;95.95;103803.03;4949530;28;20661;-77
2023/02/08 01:16:36;;;;;;;41.67;19.05;;;-2.90;99.90;;;-4.88;95.95;103799.56;4923644;28;20057;-79
2023/02/08 01:19:03;;;;;;;39.75;19.45;;;-2.90;99.90;;;-4.86;96.04;103801.47;4933499;28;20523;-78
2023/02/08 01:21:35;;;;;;;46.05;20.30;;;-3.00;99.90;;;-4.89;96.46;103796.09;4943869;28;20073;-78
2023/02/08 01:24:01;;;;;;;42.10;19.50;;;-3.00;99.90;;;-4.92;96.25;103798.47;4935514;28;20044;-78
2023/02/08 01:26:27;;;;;;;39.60;18.50;;;-3.00;99.90;;;-4.95;95.74;103794.03;4925321;28;20039;-78
2023/02/08 01:28:55;;;;;;;45.20;20.30;;;-3.00;99.90;;;-4.95;96.04;103795.69;4936603;28;20066;-78
2023/02/08 01:31:33;;;;;;;42.20;19.58;;;-3.00;99.90;;;-4.97;96.04;103800.75;4951495;28;20031;-78
2023/02/08 01:33:59;;;;;;;45.50;21.17;;;-3.00;99.90;;;-4.97;96.03;103799.84;4935484;28;20031;-78
2023/02/08 01:36:29;;;;;;;43.78;21.05;;;-3.00;99.90;;;-4.99;96.25;103804.91;4923590;28;20037;-78
2023/02/08 01:38:56;;;;;;;43.83;19.80;;;-3.10;99.90;;;-4.97;96.17;103802.41;4911938;28;20113;-78
2023/02/08 01:41:39;;;;;;;43.80;19.52;;;-3.00;99.90;;;-4.98;96.20;103791.25;4949156;28;20046;-78
2023/02/08 01:44:10;;;;;;;44.63;20.27;;;-3.00;99.90;;;-4.97;96.95;103789.56;4952163;28;20423;-79
2023/02/08 01:46:43;;;;;;;47.95;21.45;;;-3.00;99.90;;;-4.98;96.86;103780.09;4931266;28;20055;-78
2023/02/08 01:49:36;;;;;;;44.95;20.92;;;-3.00;99.90;;;-4.96;96.62;103789.66;4938013;28;20027;-79
2023/02/08 01:52:16;;;;;;;43.85;20.63;;;-3.10;99.90;;;-4.96;96.87;103788.78;4943367;28;20039;-78
2023/02/08 01:54:57;;;;;;;39.40;19.95;;;-3.00;99.90;;;-4.97;96.97;103781.84;4937746;28;20396;-78
2023/02/08 01:57:25;;;;;;;43.92;21.00;;;-3.00;99.90;;;-4.97;96.87;103780.19;4953224;28;20393;-78
2023/02/08 02:00:00;;;;;;;47.15;20.77;;;-3.00;99.90;;;-4.98;96.42;103778.38;4954659;28;20046;-78
2023/02/08 02:02:26;;;;;;;47.67;21.67;;;-3.10;99.90;;;-5.02;97.11;103790.94;4940620;28;20046;-79
2023/02/08 02:04:52;;;;;;;49.60;22.52;;;-3.10;99.90;;;-4.99;96.87;103786.00;4951180;28;20057;-78
2023/02/08 02:07:22;;;;;;;47.60;21.98;;;-3.10;99.90;;;-4.98;96.17;103780.09;4952710;28;20065;-78
2023/02/08 02:10:24;;;;;;;50.33;22.17;;;-3.10;99.90;;;-4.98;96.77;103780.09;4976313;28;20027;-78
2023/02/08 02:12:52;;;;;;;49.50;21.40;;;-3.10;99.90;;;-5.04;96.97;103771.97;4942650;28;20043;-78
2023/02/08 02:15:19;;;;;;;45.78;22.65;;;-3.10;99.90;;;-5.04;97.03;103775.41;4944889;28;20061;-78
2023/02/08 02:17:44;;;;;;;50.15;22.48;;;-3.10;99.90;;;-5.05;96.71;103762.47;4916157;28;20582;-78
2023/02/08 02:20:25;;;;;;;47.78;22.95;;;-3.10;99.90;;;-5.03;96.72;103759.22;4911459;28;20099;-78
2023/02/08 02:23:15;;;;;;;54.78;23.52;;;-3.10;99.90;;;-5.02;97.68;103758.41;4938220;28;20655;-78
2023/02/08 02:26:20;;;;;;;49.83;23.15;;;-3.10;99.90;;;-5.02;97.53;103758.41;4928616;28;20043;-78
2023/02/08 02:29:31;;;;;;;54.08;23.42;;;-3.10;99.90;;;-5.02;97.96;103767.81;4964124;28;20042;-78
2023/02/08 02:32:31;;;;;;;47.50;21.75;;;-3.10;99.90;;;-5.03;97.24;103764.38;4971182;28;20449;-77
2023/02/08 02:35:08;;;;;;;49.83;23.55;;;-3.10;99.90;;;-5.02;97.75;103768.69;4941446;28;20051;-78
2023/02/08 02:37:48;;;;;;;50.40;23.70;;;-3.10;99.90;;;-5.01;97.41;103774.72;4960165;28;20066;-79
2023/02/08 02:40:39;;;;;;;45.40;21.58;;;-3.10;99.90;;;-5.08;97.85;103773.44;4967636;28;20031;-78
2023/02/08 02:43:46;;;;;;;48.92;22.20;;;-3.10;99.90;;;-5.11;98.52;103767.22;4928358;28;20526;-79
2023/02/08 02:46:40;;;;;;;49.38;21.42;;;-3.10;99.90;;;-5.12;98.86;103767.97;4903687;29;20037;-78
2023/02/08 02:49:21;;;;;;;48.40;22.00;;;-3.10;99.90;;;-5.13;99.17;103779.94;4931395;28;20559;-79
2023/02/08 02:52:06;;;;;;;50.08;21.90;;;-3.10;99.90;;;-5.11;99.46;103777.50;4953896;28;20030;-77
2023/02/08 02:54:57;;;;;;;48.53;22.92;;;-3.10;99.90;;;-5.11;100.00;103780.06;4966197;28;20034;-78
2023/02/08 02:57:32;;;;;;;49.63;21.95;;;-3.20;99.90;;;-5.15;99.91;103784.97;4927110;28;20738;-78
2023/02/08 02:59:59;;;;;;;52.05;23.48;;;-3.20;99.90;;;-5.14;100.00;103783.28;4946004;28;20027;-78
2023/02/08 03:02:27;;;;;;;48.67;22.15;;;-3.10;99.90;;;-5.15;100.00;103779.84;4928230;28;20415;-79
2023/02/08 03:04:56;;;;;;;44.22;20.75;;;-3.20;99.90;;;-5.16;100.00;103787.47;4947148;28;20081;-79
2023/02/08 03:07:40;;;;;;;49.72;21.83;;;-3.10;99.90;;;-5.17;100.00;103783.09;4942453;28;20039;-78
2023/02/08 03:10:51;;;;;;;51.92;21.75;;;-3.20;99.90;;;-5.18;100.00;103778.75;4953684;28;20104;-78
2023/02/08 03:13:41;;;;;;;49.88;22.20;;;-3.20;99.90;;;-5.21;100.00;103784.56;4944492;28;20033;-79
2023/02/08 03:16:45;;;;;;;55.22;25.27;;;-3.20;99.90;;;-5.16;100.00;103784.91;4949355;28;20085;-79
2023/02/08 03:19:46;;;;;;;47.38;22.77;;;-3.20;99.90;;;-5.22;100.00;103780.22;4966796;28;20038;-78
2023/02/08 03:22:20;;;;;;;51.83;21.85;;;-3.10;99.90;;;-5.23;100.00;103777.53;4946174;28;20074;-78
2023/02/08 03:25:06;;;;;;;58.97;24.55;;;-3.20;99.90;;;-5.24;100.00;103778.34;4934590;28;20044;-78
2023/02/08 03:28:00;;;;;;;51.10;22.85;;;-3.20;99.90;;;-5.27;100.00;103783.25;4944983;28;20710;-79
2023/02/08 03:30:35;;;;;;;58.28;23.77;;;-3.30;99.90;;;-5.26;100.00;103788.50;4947332;28;20053;-78
2023/02/08 03:33:19;;;;;;;52.38;24.10;;;-3.30;99.90;;;-5.23;100.00;103792.97;4941704;28;20045;-78
2023/02/08 03:36:18;;;;;;;50.30;24.17;;;-3.20;99.90;;;-5.17;100.00;103790.81;4963680;28;20029;-78
2023/02/08 03:38:46;;;;;;;59.22;25.05;;;-3.20;99.90;;;-5.19;100.00;103793.25;4943061;28;20043;-79
2023/02/08 03:41:29;;;;;;;65.65;27.65;;;-3.20;99.90;;;-5.26;100.00;103791.06;4956162;28;20042;-78
2023/02/08 03:44:21;;;;;;;56.30;25.40;;;-3.30;99.90;;;-5.21;100.00;103791.38;4962480;28;20093;-79
2023/02/08 03:47:12;;;;;;;55.45;23.02;;;-3.30;99.90;;;-5.22;100.00;103790.50;4964264;28;20686;-78
2023/02/08 03:49:41;;;;;;;51.42;24.08;;;-3.30;99.90;;;-5.30;100.00;103775.34;4930903;28;20038;-78
2023/02/08 03:52:10;;;;;;;50.60;23.40;;;-3.40;99.90;;;-5.38;100.00;103783.44;4944203;28;20097;-78
2023/02/08 03:54:43;;;;;;;54.67;24.20;;;-3.50;99.90;;;-5.46;100.00;103776.00;4955480;28;20065;-78
2023/02/08 03:57:32;;;;;;;49.58;22.63;;;-3.50;99.90;;;-5.52;100.00;103775.59;4959318;28;20042;-78
2023/02/08 04:00:07;;;;;;;53.42;24.55;;;-3.60;99.90;;;-5.62;100.00;103779.19;4956711;28;20065;-78
2023/02/08 04:02:41;;;;;;;62.85;26.92;;;-3.70;99.90;;;-5.62;99.38;103779.19;4955130;28;20043;-79
2023/02/08 04:05:07;;;;;;;57.10;25.00;;;-3.70;99.90;;;-5.67;100.00;103780.56;4948539;28;20042;-78
2023/02/08 04:07:33;;;;;;;63.00;26.50;;;-3.70;99.90;;;-5.66;99.59;103785.81;4933772;28;20031;-78
2023/02/08 04:09:59;;;;;;;59.03;25.73;;;-3.70;99.90;;;-5.68;99.89;103784.81;4949835;28;20049;-78
2023/02/08 04:12:25;;;;;;;55.22;24.95;;;-3.70;99.90;;;-5.66;99.98;103780.66;4930778;28;20026;-78
2023/02/08 04:14:53;;;;;;;54.08;23.77;;;-3.80;99.90;;;-5.68;100.00;103774.53;4935074;28;20137;-78
2023/02/08 04:17:21;;;;;;;58.03;25.45;;;-3.80;99.90;;;-5.74;99.48;103766.41;4936831;28;20034;-78
2023/02/08 04:19:47;;;;;;;54.50;24.55;;;-3.90;99.90;;;-5.85;100.00;103772.44;4950952;28;20041;-78
2023/02/08 04:22:13;;;;;;;52.88;23.95;;;-3.90;99.90;;;-5.91;99.09;103769.47;4962236;28;20070;-78
2023/02/08 04:24:39;;;;;;;53.60;24.75;;;-4.00;99.90;;;-5.97;99.11;103764.84;4949497;28;20107;-78
2023/02/08 04:27:05;;;;;;;62.38;25.98;;;-4.00;99.90;;;-6.02;99.24;103764.53;4944585;28;20463;-78
2023/02/08 04:29:33;;;;;;;55.72;25.67;;;-4.00;99.90;;;-6.11;98.71;103760.41;4972383;28;20046;-78
2023/02/08 04:31:59;;;;;;;59.10;25.92;;;-4.00;99.90;;;-6.07;99.99;103764.97;4932580;28;20065;-78
2023/02/08 04:34:26;;;;;;;60.25;27.08;;;-4.00;99.90;;;-5.97;100.00;103761.38;4922502;28;20454;-79
2023/02/08 04:36:52;;;;;;;56.78;26.23;;;-4.00;99.90;;;-5.92;100.00;103762.56;4956986;28;20146;-78
2023/02/08 04:39:17;;;;;;;58.63;26.58;;;-3.90;99.90;;;-5.96;100.00;103764.06;4954822;28;20611;-78
2023/02/08 04:41:43;;;;;;;62.17;26.38;;;-4.00;99.90;;;-6.00;100.00;103774.91;4944420;28;20043;-78
2023/02/08 04:44:09;;;;;;;62.92;25.75;;;-3.90;99.90;;;-6.02;100.00;103773.91;4946542;28;20035;-79
2023/02/08 04:46:35;;;;;;;57.67;24.92;;;-3.90;99.90;;;-6.02;100.00;103774.78;4963155;28;20030;-78
2023/02/08 04:49:08;;;;;;;59.58;25.17;;;-3.90;99.90;;;-6.01;100.00;103781.69;4945673;28;20043;-78
2023/02/08 04:51:34;;;;;;;58.58;25.33;;;-4.00;99.90;;;-6.02;100.00;103785.03;4951628;28;20047;-78
2023/02/08 04:53:59;;;;;;;63.55;25.67;;;-2.70;99.90;;;-6.13;100.00;103783.41;4961516;28;20158;-78
2023/02/08 04:56:25;;;;;;;64.93;27.10;;;-4.00;99.90;;;-6.07;100.00;103783.84;4956094;28;20595;-78
2023/02/08 04:58:51;;;;;;;63.80;27.95;;;-4.00;99.90;;;-5.99;100.00;103777.53;4938341;28;20488;-78
2023/02/08 05:01:19;;;;;;;60.75;28.08;;;-3.90;99.90;;;-5.90;100.00;103784.06;4939822;28;20044;-78
2023/02/08 05:03:46;;;;;;;62.90;27.92;;;-3.90;99.90;;;-5.88;100.00;103778.25;4921364;28;20452;-78
2023/02/08 05:06:12;;;;;;;66.32;28.67;;;-3.80;99.90;;;-5.81;100.00;103788.19;4979314;28;20503;-78
2023/02/08 05:08:38;;;;;;;61.60;27.85;;;-3.80;99.90;;;-5.76;100.00;103783.38;4944737;28;20046;-78
2023/02/08 05:11:04;;;;;;;65.03;28.08;;;-3.80;99.90;;;-5.71;100.00;103786.25;4938591;28;20404;-79
2023/02/08 05:13:30;;;;;;;60.80;29.00;;;-3.70;99.90;;;-5.67;100.00;103794.28;4953144;28;20059;-78
2023/02/08 05:15:56;;;;;;;64.88;29.38;;;-3.70;99.90;;;-5.63;100.00;103785.13;4921653;28;20037;-78
2023/02/08 05:18:24;;;;;;;54.58;25.08;;;-3.70;99.90;;;-5.73;100.00;103783.56;4928896;28;20464;-79
2023/02/08 05:20:58;;;;;;;64.45;25.58;;;-3.70;99.90;;;-5.78;100.00;103785.81;4935147;28;20518;-78
2023/02/08 05:23:28;;;;;;;55.50;24.58;;;-3.70;99.90;;;-5.80;100.00;103792.53;4978032;28;20486;-78
2023/02/08 05:25:54;;;;;;;62.65;27.58;;;-3.70;99.90;;;-5.70;100.00;103783.81;4953460;28;20039;-78
2023/02/08 05:28:20;;;;;;;58.53;27.17;;;-3.70;99.90;;;-5.73;100.00;103783.56;4951595;28;20038;-78
2023/02/08 05:30:46;;;;;;;67.82;27.60;;;-3.70;99.90;;;-5.75;100.00;103784.25;4934435;28;20113;-78
2023/02/08 05:33:12;;;;;;;64.40;28.15;;;-3.70;99.90;;;-5.76;100.00;103785.94;4946260;28;20138;-79
2023/02/08 05:35:38;;;;;;;61.92;28.85;;;-3.70;99.90;;;-5.69;100.00;103790.72;4945171;28;20043;-78
2023/02/08 05:38:07;;;;;;;61.90;27.33;;;-3.70;99.90;;;-5.66;100.00;103795.16;4942066;28;20598;-78
2023/02/08 05:40:33;;;;;;;69.30;29.42;;;-3.70;99.90;;;-5.64;100.00;103791.91;4954730;28;20039;-78
2023/02/08 05:42:59;;;;;;;68.05;29.77;;;-3.70;99.90;;;-5.60;100.00;103786.19;4944218;28;20431;-78
2023/02/08 05:45:25;;;;;;;68.95;29.27;;;-3.70;99.90;;;-5.63;100.00;103785.13;4955317;28;20038;-78
2023/02/08 05:47:51;;;;;;;77.90;30.67;;;-3.70;99.90;;;-5.62;100.00;103787.78;4953384;28;20052;-79
2023/02/08 05:50:17;;;;;;;62.75;28.52;;;-3.70;99.90;;;-5.68;100.00;103791.59;4939787;28;20038;-78
2023/02/08 05:52:42;;;;;;;65.97;28.50;;;-3.70;99.90;;;-5.68;100.00;103783.88;4962190;28;20031;-78
2023/02/08 05:55:08;;;;;;;69.82;30.98;;;-3.70;99.90;;;-5.68;100.00;103779.66;4939688;28;20069;-78
2023/02/08 05:57:37;;;;;;;74.03;30.92;;;-3.70;99.90;;;-5.66;100.00;103785.81;4931368;28;20046;-79
2023/02/08 06:00:05;;;;;;;69.05;30.13;;;-3.70;99.90;;;-5.64;100.00;103788.44;4936161;28;20044;-78
2023/02/08 06:02:31;;;;;;;61.75;28.02;;;-3.70;99.90;;;-5.63;100.00;103782.56;4933191;28;20065;-78
2023/02/08 06:04:57;;;;;;;70.10;29.55;;;-3.70;99.90;;;-5.67;100.00;103786.56;4943888;28;20377;-78
2023/02/08 06:07:23;;;;;;;67.18;29.05;;;-3.70;99.90;;;-5.63;100.00;103792.81;4932489;28;20038;-78
2023/02/08 06:09:49;;;;;;;70.75;29.85;;;-3.70;99.90;;;-5.65;100.00;103802.97;4951433;28;20038;-78
2023/02/08 06:12:15;;;;;;;70.20;30.10;;;-3.80;99.90;;;-5.74;100.00;103801.44;4924728;28;20085;-79
2023/02/08 06:14:41;;;;;;;77.43;31.73;;;-3.80;99.90;;;-5.72;100.00;103815.25;4958996;28;20031;-78
2023/02/08 06:17:06;;;;;;;75.22;33.25;;;-3.80;99.90;;;-5.75;100.00;103810.81;4942663;28;21795;-79
2023/02/08 06:19:32;;;;;;;78.28;31.70;;;-3.80;99.90;;;-5.80;100.00;103800.22;4964234;28;20121;-79
2023/02/08 06:21:58;;;;;;;76.88;30.52;;;-3.90;99.90;;;-5.80;100.00;103807.03;4939436;28;20552;-78
2023/02/08 06:24:24;;;;;;;71.97;30.23;;;-3.90;99.90;;;-5.84;100.00;103817.88;4965882;28;20055;-78
2023/02/08 06:26:50;;;;;;;78.53;30.15;;;-3.90;99.90;;;-5.94;100.00;103807.78;4955954;28;20089;-78
2023/02/08 06:29:16;;;;;;;69.88;30.70;;;-3.90;99.90;;;-5.97;100.00;103811.03;4929920;28;20625;-78
2023/02/08 06:31:44;;;;;;;79.97;30.20;;;-3.90;99.90;;;-5.95;100.00;103819.72;4955085;28;20097;-78
2023/02/08 06:34:10;;;;;;;73.65;30.52;;;-3.90;99.90;;;-5.94;100.00;103823.16;4954306;28;20076;-78
2023/02/08 06:36:36;;;;;;;71.63;31.35;;;-4.00;99.90;;;-5.97;100.00;103817.84;4969948;28;20398;-78
2023/02/08 06:39:02;;;;;;;63.25;29.40;;;-4.00;99.90;;;-5.98;100.00;103819.53;4961578;28;20049;-78
2023/02/08 06:41:28;;;;;;;79.22;27.52;;;-4.00;99.90;;;-6.00;100.00;103823.66;4973690;28;20055;-79
2023/02/08 06:43:54;;;;;;;69.13;28.55;;;-3.90;99.90;;;-5.89;100.00;103826.94;4929372;28;20377;-78
2023/02/08 06:46:20;;;;;;;71.97;31.70;;;-3.90;99.90;;;-5.75;100.00;103822.75;4933801;28;20117;-78
2023/02/08 06:48:48;;;;;;;72.30;31.40;;;-3.80;99.90;;;-5.67;100.00;103835.34;4972954;28;20134;-78
2023/02/08 06:51:14;;;;;;;74.70;30.55;;;-3.80;99.90;;;-5.63;100.00;103824.50;4946285;28;20046;-79
2023/02/08 06:53:40;;;;;;;72.18;31.42;;;-3.70;99.90;;;-5.57;100.00;103835.22;4947331;28;20060;-78
2023/02/08 06:56:06;;;;;;;65.95;30.20;;;-3.60;99.90;;;-5.49;100.00;103834.84;4934165;28;20038;-79
2023/02/08 06:58:32;;;;;;;68.40;31.75;;;-3.60;99.90;;;-5.40;100.00;103836.38;4963483;28;20032;-78
2023/02/08 07:00:58;;;;;;;71.28;32.55;;;-3.50;99.90;;;-5.32;100.00;103839.47;4950173;28;20061;-78
2023/02/08 07:03:23;;;;;;;77.13;32.50;;;-3.50;99.90;;;-5.32;100.00;103839.47;4941264;28;20109;-78
2023/02/08 07:05:49;;;;;;;72.32;34.03;;;-3.40;99.90;;;-5.25;100.00;103840.78;4941984;28;20107;-79
2023/02/08 07:08:15;;;;;;;77.90;35.58;;;-3.40;99.90;;;-5.20;100.00;103836.84;4942471;28;20927;-79
2023/02/08 07:10:41;;;;;;;72.22;32.75;;;-3.40;99.90;;;-5.17;100.00;103842.19;4929480;28;20035;-78
2023/02/08 07:13:07;;;;;;;73.97;33.28;;;-3.30;99.90;;;-5.11;100.00;103840.03;4943396;28;20499;-78
2023/02/08 07:15:34;;;;;;;96.80;43.15;;;-3.30;99.90;;;-5.02;100.00;103839.78;4932987;28;20046;-77
2023/02/08 07:18:00;;;;;;;81.40;36.38;;;-3.20;99.90;;;-4.96;100.00;103845.31;4965116;28;20031;-79
2023/02/08 07:20:26;;;;;;;94.28;39.97;;;-3.20;99.90;;;-4.84;100.00;103843.56;4952813;28;20084;-79
2023/02/08 07:22:56;;;;;;;80.85;36.00;;;-3.10;99.90;;;-4.75;100.00;103854.47;4948210;28;20042;-79
2023/02/08 07:25:22;;;;;;;74.45;32.85;;;-3.10;99.90;;;-4.68;100.00;103852.31;4918536;28;20047;-78
2023/02/08 07:27:48;;;;;;;75.43;33.28;;;-3.00;99.90;;;-4.63;100.00;103846.66;4920828;28;20498;-78
2023/02/08 07:30:14;;;;;;;73.53;34.15;;;-2.90;99.90;;;-4.50;100.00;103850.06;4933381;28;20130;-78
2023/02/08 07:32:39;;;;;;;75.93;33.10;;;-2.80;99.90;;;-4.00;99.24;103862.72;4930266;28;20035;-78
2023/02/08 07:35:06;;;;;;;73.97;32.20;;;-2.60;99.90;;;-2.82;98.04;103880.25;4958173;28;20075;-78
2023/02/08 07:37:34;;;;;;;69.82;31.55;;;-2.00;99.90;;;0.50;93.19;103896.78;4960215;28;20043;-78
2023/02/08 07:40:00;;;;;;;67.10;31.70;;;-1.30;99.90;;;-0.71;87.67;103866.81;4934065;28;20039;-78
2023/02/08 07:42:25;;;;;;;74.35;31.88;;;-0.90;99.90;;;-1.66;86.73;103864.44;4950460;28;20034;-79
2023/02/08 07:44:51;;;;;;;70.20;32.83;;;-0.90;99.90;;;-2.17;86.13;103868.50;4939763;28;20423;-79
2023/02/08 07:47:17;;;;;;;66.85;32.63;;;-1.00;99.90;;;-2.41;86.99;103858.56;4932464;28;20035;-78
2023/02/08 07:49:43;;;;;;;66.38;32.53;;;-1.00;99.90;;;-2.54;87.23;103853.50;4917978;28;20031;-79
2023/02/08 07:52:09;;;;;;;71.93;33.50;;;-0.90;99.90;;;-0.46;86.91;103874.09;4962277;28;20552;-78
2023/02/08 07:54:34;;;;;;;58.35;29.92;;;-0.20;99.90;;;1.83;83.08;103886.03;4950664;28;20113;-78
2023/02/08 07:57:08;;;;;;;53.90;27.92;;;0.90;99.90;;;3.21;77.55;103890.31;4956656;28;20096;-79
2023/02/08 07:59:33;;;;;;;55.35;28.88;;;2.10;99.90;;;4.48;72.46;103888.28;4930311;28;20038;-78
2023/02/08 08:01:59;;;;;;;59.90;28.05;;;3.10;99.90;;;4.99;68.70;103882.78;4944230;28;20097;-77
2023/02/08 08:04:25;;;;;;;56.22;28.77;;;3.60;99.90;;;3.05;68.61;103853.34;4952320;28;20035;-78
2023/02/08 08:06:56;;;;;;;55.65;29.42;;;3.30;99.90;;;1.68;70.86;103841.25;4939711;28;20046;-76
2023/02/08 08:09:23;;;;;;;56.38;30.05;;;2.70;99.90;;;0.66;73.32;103839.56;4940797;28;20134;-76
2023/02/08 08:11:48;;;;;;;60.20;29.98;;;2.20;99.90;;;-0.03;75.54;103844.19;4943520;28;20039;-77
2023/02/08 08:14:14;;;;;;;64.60;31.00;;;1.60;99.90;;;-0.59;77.45;103842.34;4914953;28;20042;-77
2023/02/08 08:16:42;;;;;;;59.47;30.65;;;1.20;99.90;;;-0.98;78.90;103844.72;4933822;28;20043;-76
2023/02/08 08:19:11;;;;;;;65.95;30.70;;;0.80;99.90;;;-1.27;80.56;103834.63;4946523;28;20045;-78
2023/02/08 08:21:37;;;;;;;59.88;29.17;;;0.60;99.90;;;-1.34;81.65;103840.31;4909911;28;20066;-79
2023/02/08 08:24:03;;;;;;;56.65;28.85;;;0.40;99.90;;;-1.43;82.91;103831.16;4939458;28;20466;-78
2023/02/08 08:26:28;;;;;;;58.80;30.10;;;0.30;99.90;;;-1.52;83.97;103835.03;4949159;28;20081;-78
2023/02/08 08:28:54;;;;;;;55.85;29.92;;;0.30;99.90;;;-1.09;84.44;103841.56;4961835;28;20038;-78
2023/02/08 08:31:21;;;;;;;56.35;28.98;;;0.50;99.90;;;-0.48;84.09;103847.22;4919996;28;20114;-78
2023/02/08 08:33:57;;;;;;;55.65;29.00;;;0.80;99.90;;;-0.39;83.33;103846.78;4944257;28;20464;-79
2023/02/08 08:36:23;;;;;;;63.70;30.00;;;0.90;99.90;;;-0.69;83.57;103839.31;4936182;28;20050;-77
2023/02/08 08:38:50;;;;;;;57.28;28.10;;;0.80;99.90;;;-0.86;83.71;103850.50;4922445;28;20100;-77
2023/02/08 08:41:21;;;;;;;58.00;28.77;;;0.70;99.90;;;-0.96;84.42;103853.44;4930914;28;21009;-78
2023/02/08 08:43:48;;;;;;;57.28;27.85;;;0.60;99.90;;;-1.14;84.38;103848.22;4941780;28;20076;-77
2023/02/08 08:46:15;;;;;;;55.30;27.17;;;0.50;99.90;;;-1.28;85.10;103830.25;4956095;28;20041;-76
2023/02/08 08:48:41;;;;;;;57.50;27.13;;;0.40;99.90;;;-1.34;85.59;103835.13;4944567;28;20041;-76
2023/02/08 08:51:07;;;;;;;52.40;27.75;;;0.40;99.90;;;-1.36;86.14;103841.00;4923685;28;20050;-77
2023/02/08 08:53:35;;;;;;;51.97;27.13;;;0.30;99.90;;;-1.40;86.60;103837.41;4939566;28;20326;-78
2023/02/08 08:56:02;;;;;;;53.60;26.55;;;0.30;99.90;;;-1.40;87.22;103826.16;4933022;28;20027;-78
2023/02/08 08:58:28;;;;;;;56.83;27.70;;;0.30;99.90;;;-1.38;87.37;103827.13;4945700;28;20022;-78
2023/02/08 09:00:58;;;;;;;53.92;27.95;;;0.30;99.90;;;-1.37;87.83;103828.91;4939070;28;20038;-78
2023/02/08 09:03:28;;;;;;;56.40;27.90;;;0.30;99.90;;;-1.37;88.44;103826.31;4921573;28;20049;-78
2023/02/08 09:05:55;;;;;;;48.65;26.77;;;0.30;99.90;;;-1.36;88.38;103829.00;4951156;28;20041;-77
2023/02/08 09:08:21;;;;;;;50.65;26.27;;;0.30;99.90;;;-1.33;88.54;103820.50;4941298;28;20063;-76
2023/02/08 09:10:47;;;;;;;54.13;26.48;;;0.30;99.90;;;-1.29;88.47;103813.00;4960678;28;20046;-78
2023/02/08 09:13:20;;;;;;;49.08;25.17;;;0.40;99.90;;;-1.26;88.78;103813.13;4938278;28;20097;-77
2023/02/08 09:15:48;;;;;;;51.33;25.63;;;0.40;99.90;;;-1.18;88.22;103815.25;4937249;28;20111;-77
2023/02/08 09:18:14;;;;;;;55.65;26.35;;;0.50;99.90;;;-1.08;88.51;103813.22;4951042;28;20035;-77
2023/02/08 09:20:40;;;;;;;51.67;25.15;;;0.50;99.90;;;-1.04;88.51;103811.66;4965778;28;20555;-79
2023/02/08 09:23:06;;;;;;;51.42;26.23;;;0.60;99.90;;;-0.99;88.39;103812.78;4929204;28;20443;-77
2023/02/08 09:25:36;;;;;;;52.42;24.70;;;0.70;99.90;;;-0.91;88.16;103807.97;4937618;28;20030;-77
2023/02/08 09:28:03;;;;;;;51.42;25.95;;;0.70;99.90;;;-0.86;88.20;103809.13;4938798;28;20038;-77
2023/02/08 09:30:29;;;;;;;53.67;25.60;;;0.80;99.90;;;-0.64;87.81;103821.41;4930637;28;20082;-77
2023/02/08 09:32:55;;;;;;;52.60;25.33;;;1.00;99.90;;;-0.25;87.36;103825.03;4943768;28;20178;-77
2023/02/08 09:35:21;;;;;;;49.83;25.60;;;1.30;99.90;;;0.35;85.68;103832.13;4940928;28;20034;-77
2023/02/08 09:37:54;;;;;;;44.88;24.27;;;1.60;99.90;;;0.81;84.28;103827.28;4954408;28;20029;-77
2023/02/08 09:40:36;;;;;;;46.22;23.55;;;1.90;99.90;;;0.95;82.38;103817.50;4951438;28;20038;-76
2023/02/08 09:43:42;;;;;;;50.17;24.25;;;2.10;99.90;;;1.13;81.90;103827.78;4942623;28;20054;-76
2023/02/08 09:46:30;;;;;;;47.28;24.25;;;2.50;99.90;;;1.14;82.20;103828.66;4999951;23;20076;-76
2023/02/08 09:49:02;;;;;;;44.97;21.88;;;2.90;99.90;;;1.10;82.72;103829.34;5020826;28;20018;-77
2023/02/08 09:51:38;;;;;;;46.75;23.25;;;3.20;99.90;;;1.23;81.91;103839.41;4946329;28;20104;-76
2023/02/08 09:54:38;;;;;;;41.10;21.52;;;3.40;99.90;;;1.26;81.93;103844.75;4982360;28;20049;-77
2023/02/08 09:57:12;;;;;;;44.33;23.02;;;3.60;99.90;;;1.37;81.14;103842.59;4988784;28;20030;-77
2023/02/08 09:59:54;;;;;;;45.88;22.80;;;3.70;99.90;;;1.52;81.83;103843.22;5001789;28;20490;-77
2023/02/08 10:02:28;;;;;;;39.47;21.65;;;3.90;99.90;;;1.70;81.21;103842.19;4971251;28;20063;-77
2023/02/08 10:05:03;;;;;;;43.85;22.63;;;4.00;99.90;;;1.81;80.57;103854.81;5002811;28;20069;-77
2023/02/08 10:07:31;;;;;;;43.88;21.80;;;4.00;99.90;;;1.91;79.91;103849.97;4980686;28;20394;-77
2023/02/08 10:10:30;;;;;;;41.83;21.70;;;4.00;99.90;;;1.93;79.54;103840.53;5023085;28;20026;-77
2023/02/08 10:13:23;;;;;;;41.72;21.92;;;4.30;99.90;;;2.05;78.84;103846.19;4980916;28;20029;-77
2023/02/08 10:16:06;;;;;;;42.92;22.02;;;3.90;99.90;;;2.18;78.93;103851.06;4988470;28;20045;-77